createdAt,value
2018-01-15T00:00:14.667Z,1.68
2018-01-15T00:01:14.681Z,1.68
2018-01-15T00:02:14.690Z,1.71
2018-01-15T00:03:14.704Z,1.59
2018-01-15T00:04:14.714Z,1.62
2018-01-15T00:05:14.726Z,1.55
2018-01-15T00:06:14.738Z,1.59
2018-01-15T00:07:14.746Z,1.52
2018-01-15T00:08:14.770Z,1.50
2018-01-15T00:09:14.769Z,1.56
2018-01-15T00:10:14.777Z,1.73
2018-01-15T00:11:14.800Z,1.66
2018-01-15T00:12:14.803Z,1.49
2018-01-15T00:13:14.810Z,1.53
2018-01-15T00:14:14.824Z,1.60
2018-01-15T00:15:14.898Z,1.58
2018-01-15T00:16:14.847Z,1.58
2018-01-15T00:17:14.861Z,1.68
2018-01-15T00:18:14.874Z,1.59
2018-01-15T00:19:14.877Z,1.66
2018-01-15T00:20:14.889Z,1.55
2018-01-15T00:21:14.902Z,1.68
2018-01-15T00:22:14.913Z,1.67
2018-01-15T00:23:14.929Z,1.68
2018-01-15T00:24:14.933Z,1.70
2018-01-15T00:25:14.941Z,1.73
2018-01-15T00:26:14.953Z,1.77
2018-01-15T00:27:14.967Z,1.48
2018-01-15T00:28:14.991Z,1.53
2018-01-15T00:29:14.992Z,1.53
2018-01-15T00:30:15.010Z,1.49
2018-01-15T00:31:15.018Z,1.53
2018-01-15T00:32:15.020Z,1.42
2018-01-15T00:33:15.038Z,1.62
2018-01-15T00:34:15.044Z,1.56
2018-01-15T00:35:15.064Z,1.48
2018-01-15T00:36:15.066Z,1.45
2018-01-15T00:37:15.079Z,1.49
2018-01-15T00:38:15.087Z,1.58
2018-01-15T00:39:15.157Z,1.58
2018-01-15T00:40:15.107Z,1.32
2018-01-15T00:41:15.121Z,1.34
2018-01-15T00:42:15.131Z,1.44
2018-01-15T00:43:15.143Z,1.50
2018-01-15T00:44:15.152Z,1.44
2018-01-15T00:45:15.160Z,1.50
2018-01-15T00:46:15.181Z,1.53
2018-01-15T00:47:15.185Z,1.67
2018-01-15T00:48:15.197Z,1.74
2018-01-15T00:49:15.208Z,1.76
2018-01-15T00:50:15.230Z,1.74
2018-01-15T00:51:15.230Z,1.77
2018-01-15T00:52:15.242Z,1.70
2018-01-15T00:53:15.381Z,1.70
2018-01-15T00:54:15.265Z,1.73
2018-01-15T00:55:15.271Z,1.77
2018-01-15T00:56:15.288Z,1.63
2018-01-15T00:57:15.295Z,1.66
2018-01-15T00:58:15.306Z,1.53
2018-01-15T00:59:15.325Z,1.67
2018-01-15T01:00:15.328Z,1.68
2018-01-15T01:01:15.338Z,1.55
2018-01-15T01:02:15.349Z,1.68
2018-01-15T01:03:15.365Z,1.56
2018-01-15T01:04:15.373Z,1.53
2018-01-15T01:05:15.393Z,1.59
2018-01-15T01:06:15.395Z,1.62
2018-01-15T01:07:15.404Z,1.66
2018-01-15T01:08:15.413Z,1.67
2018-01-15T01:09:15.433Z,1.49
2018-01-15T01:10:15.436Z,1.50
2018-01-15T01:11:15.452Z,1.50
2018-01-15T01:12:15.463Z,1.49
2018-01-15T01:13:15.471Z,1.55
2018-01-15T01:14:15.482Z,1.59
2018-01-15T01:15:15.493Z,1.48
2018-01-15T01:16:15.503Z,1.50
2018-01-15T01:17:15.513Z,1.53
2018-01-15T01:18:15.525Z,1.42
2018-01-15T01:19:15.534Z,1.42
2018-01-15T01:20:15.557Z,1.28
2018-01-15T01:21:15.556Z,1.35
2018-01-15T01:22:15.578Z,1.41
2018-01-15T01:23:15.577Z,1.38
2018-01-15T01:24:15.591Z,1.49
2018-01-15T01:25:15.602Z,1.52
2018-01-15T01:26:15.647Z,1.41
2018-01-15T01:27:15.628Z,1.45
2018-01-15T01:28:15.637Z,1.34
2018-01-15T01:29:15.646Z,1.34
2018-01-15T01:30:15.657Z,1.35
2018-01-15T01:31:15.672Z,1.35
2018-01-15T01:32:15.679Z,1.20
2018-01-15T01:33:15.697Z,1.20
2018-01-15T01:34:15.703Z,1.23
2018-01-15T01:35:15.717Z,1.26
2018-01-15T01:36:15.722Z,1.40
2018-01-15T01:37:15.731Z,1.50
2018-01-15T01:38:15.747Z,1.58
2018-01-15T01:39:15.755Z,1.45
2018-01-15T01:40:15.764Z,1.37
2018-01-15T01:41:15.784Z,1.35
2018-01-15T01:42:15.790Z,1.30
2018-01-15T01:43:15.803Z,1.41
2018-01-15T01:44:15.807Z,1.37
2018-01-15T01:45:15.818Z,1.50
2018-01-15T01:46:15.832Z,1.42
2018-01-15T01:47:15.842Z,1.56
2018-01-15T01:48:15.853Z,1.53
2018-01-15T01:49:15.870Z,1.44
2018-01-15T01:50:15.874Z,1.55
2018-01-15T01:51:15.884Z,1.56
2018-01-15T01:52:15.895Z,1.53
2018-01-15T01:53:15.907Z,1.44
2018-01-15T01:54:15.916Z,1.50
2018-01-15T01:55:15.931Z,1.45
2018-01-15T01:56:15.942Z,1.42
2018-01-15T01:57:15.952Z,1.37
2018-01-15T01:58:15.966Z,1.16
2018-01-15T01:59:15.975Z,1.22
2018-01-15T02:00:15.991Z,1.17
2018-01-15T02:01:15.996Z,1.20
2018-01-15T02:02:16.005Z,1.41
2018-01-15T02:03:16.018Z,1.48
2018-01-15T02:04:16.028Z,1.24
2018-01-15T02:05:16.037Z,1.38
2018-01-15T02:06:16.051Z,1.31
2018-01-15T02:07:16.062Z,1.38
2018-01-15T02:08:16.075Z,1.17
2018-01-15T02:09:16.083Z,1.14
2018-01-15T02:10:16.092Z,1.22
2018-01-15T02:11:16.103Z,1.34
2018-01-15T02:12:16.119Z,1.35
2018-01-15T02:13:16.123Z,1.38
2018-01-15T02:14:16.137Z,1.26
2018-01-15T02:15:16.148Z,1.28
2018-01-15T02:16:16.158Z,1.17
2018-01-15T02:17:16.174Z,1.26
2018-01-15T02:18:16.176Z,1.19
2018-01-15T02:19:16.190Z,1.22
2018-01-15T02:20:16.207Z,1.30
2018-01-15T02:21:16.210Z,1.14
2018-01-15T02:22:16.222Z,1.26
2018-01-15T02:23:16.245Z,1.30
2018-01-15T02:24:16.259Z,1.32
2018-01-15T02:25:16.260Z,1.44
2018-01-15T02:26:16.266Z,1.19
2018-01-15T02:27:16.274Z,1.17
2018-01-15T02:28:16.289Z,1.28
2018-01-15T02:29:16.298Z,1.35
2018-01-15T02:30:16.307Z,1.38
2018-01-15T02:31:16.319Z,1.44
2018-01-15T02:32:16.331Z,1.24
2018-01-15T02:33:16.340Z,1.31
2018-01-15T02:34:16.368Z,1.22
2018-01-15T02:35:16.379Z,1.26
2018-01-15T02:36:16.373Z,1.26
2018-01-15T02:37:16.381Z,1.17
2018-01-15T02:38:16.397Z,1.34
2018-01-15T02:39:16.402Z,1.40
2018-01-15T02:40:16.416Z,1.44
2018-01-15T02:41:16.426Z,1.38
2018-01-15T02:42:16.441Z,1.37
2018-01-15T02:43:16.448Z,1.31
2018-01-15T02:44:16.468Z,1.50
2018-01-15T02:45:16.468Z,1.50
2018-01-15T02:46:16.486Z,1.59
2018-01-15T02:47:16.492Z,1.52
2018-01-15T02:48:16.521Z,1.48
2018-01-15T02:49:16.513Z,1.53
2018-01-15T02:50:16.577Z,1.53
2018-01-15T02:51:16.532Z,1.45
2018-01-15T02:52:16.547Z,1.44
2018-01-15T02:53:16.553Z,1.40
2018-01-15T02:54:16.564Z,1.34
2018-01-15T02:55:16.574Z,1.24
2018-01-15T02:56:16.589Z,1.16
2018-01-15T02:57:16.597Z,1.45
2018-01-15T02:58:16.610Z,1.32
2018-01-15T02:59:16.623Z,1.42
2018-01-15T03:00:16.631Z,1.17
2018-01-15T03:01:16.641Z,1.13
2018-01-15T03:02:16.651Z,1.22
2018-01-15T03:03:16.670Z,1.30
2018-01-15T03:04:16.673Z,1.42
2018-01-15T03:05:16.683Z,1.38
2018-01-15T03:06:16.697Z,1.42
2018-01-15T03:07:16.707Z,1.17
2018-01-15T03:08:16.718Z,1.24
2018-01-15T03:09:16.724Z,1.31
2018-01-15T03:10:16.744Z,1.37
2018-01-15T03:11:16.749Z,1.40
2018-01-15T03:12:16.761Z,1.45
2018-01-15T03:13:16.776Z,1.41
2018-01-15T03:14:16.786Z,1.37
2018-01-15T03:15:16.796Z,1.28
2018-01-15T03:16:16.819Z,1.35
2018-01-15T03:17:16.824Z,1.42
2018-01-15T03:18:16.829Z,1.45
2018-01-15T03:19:16.835Z,1.49
2018-01-15T03:20:16.848Z,1.32
2018-01-15T03:21:16.857Z,1.41
2018-01-15T03:22:16.867Z,1.26
2018-01-15T03:23:16.882Z,1.40
2018-01-15T03:24:16.893Z,1.42
2018-01-15T03:25:16.903Z,1.45
2018-01-15T03:26:16.912Z,1.32
2018-01-15T03:27:16.923Z,1.28
2018-01-15T03:28:16.937Z,1.26
2018-01-15T03:29:17.129Z,1.30
2018-01-15T03:30:16.956Z,1.32
2018-01-15T03:31:16.968Z,1.41
2018-01-15T03:32:16.978Z,1.31
2018-01-15T03:33:16.987Z,1.31
2018-01-15T03:34:17.000Z,1.35
2018-01-15T03:35:17.008Z,1.41
2018-01-15T03:36:17.023Z,1.45
2018-01-15T03:37:17.032Z,1.50
2018-01-15T03:38:17.038Z,1.48
2018-01-15T03:39:17.053Z,1.48
2018-01-15T03:40:17.062Z,1.40
2018-01-15T03:41:17.080Z,1.48
2018-01-15T03:42:17.083Z,1.22
2018-01-15T03:43:17.096Z,1.35
2018-01-15T03:44:17.104Z,1.48
2018-01-15T03:45:17.119Z,1.48
2018-01-15T03:46:17.127Z,1.44
2018-01-15T03:47:17.139Z,1.45
2018-01-15T03:48:17.158Z,1.53
2018-01-15T03:49:17.157Z,1.31
2018-01-15T03:50:17.171Z,1.23
2018-01-15T03:51:17.178Z,1.41
2018-01-15T03:52:17.198Z,1.49
2018-01-15T03:53:17.203Z,1.40
2018-01-15T03:54:17.216Z,1.45
2018-01-15T03:55:17.222Z,1.48
2018-01-15T03:56:17.234Z,1.44
2018-01-15T03:57:17.243Z,1.62
2018-01-15T03:58:17.258Z,1.35
2018-01-15T03:59:17.270Z,1.38
2018-01-15T04:00:17.281Z,1.34
2018-01-15T04:01:17.288Z,1.26
2018-01-15T04:02:17.299Z,1.44
2018-01-15T04:03:17.308Z,1.49
2018-01-15T04:04:17.323Z,1.58
2018-01-15T04:05:17.336Z,1.42
2018-01-15T04:06:17.347Z,1.35
2018-01-15T04:07:17.351Z,1.48
2018-01-15T04:08:17.364Z,1.35
2018-01-15T04:09:17.371Z,1.40
2018-01-15T04:10:17.383Z,1.59
2018-01-15T04:11:17.396Z,1.55
2018-01-15T04:12:17.412Z,1.53
2018-01-15T04:13:17.428Z,1.49
2018-01-15T04:14:17.429Z,1.42
2018-01-15T04:15:17.442Z,1.59
2018-01-15T04:16:17.451Z,1.52
2018-01-15T04:17:17.456Z,1.44
2018-01-15T04:18:17.470Z,1.53
2018-01-15T04:19:17.478Z,1.73
2018-01-15T04:20:17.488Z,1.70
2018-01-15T04:21:17.503Z,1.80
2018-01-15T04:22:17.512Z,1.56
2018-01-15T04:23:17.527Z,1.44
2018-01-15T04:24:17.540Z,1.52
2018-01-15T04:25:17.548Z,1.53
2018-01-15T04:26:17.557Z,1.52
2018-01-15T04:27:17.572Z,1.68
2018-01-15T04:28:17.580Z,1.77
2018-01-15T04:29:17.591Z,1.74
2018-01-15T04:30:17.598Z,1.50
2018-01-15T04:31:17.611Z,1.45
2018-01-15T04:32:17.627Z,1.52
2018-01-15T04:33:17.630Z,1.48
2018-01-15T04:34:17.642Z,1.53
2018-01-15T04:35:17.654Z,1.50
2018-01-15T04:36:17.668Z,1.52
2018-01-15T04:37:17.677Z,1.56
2018-01-15T04:38:17.688Z,1.55
2018-01-15T04:39:17.696Z,1.60
2018-01-15T04:40:17.719Z,1.53
2018-01-15T04:41:17.716Z,1.71
2018-01-15T04:42:17.735Z,1.67
2018-01-15T04:43:17.741Z,1.59
2018-01-15T04:44:17.751Z,1.68
2018-01-15T04:45:17.761Z,1.66
2018-01-15T04:46:17.782Z,1.53
2018-01-15T04:47:17.787Z,1.50
2018-01-15T04:48:17.793Z,1.48
2018-01-15T04:49:17.801Z,1.31
2018-01-15T04:50:17.816Z,1.49
2018-01-15T04:51:17.825Z,1.49
2018-01-15T04:52:17.841Z,1.30
2018-01-15T04:53:17.847Z,1.35
2018-01-15T04:54:17.857Z,1.28
2018-01-15T04:55:17.887Z,1.23
2018-01-15T04:56:17.882Z,1.35
2018-01-15T04:57:17.895Z,1.26
2018-01-15T04:58:17.908Z,1.44
2018-01-15T04:59:17.914Z,1.31
2018-01-15T05:00:17.926Z,1.16
2018-01-15T05:01:17.937Z,1.20
2018-01-15T05:02:17.946Z,1.22
2018-01-15T05:03:17.958Z,1.28
2018-01-15T05:04:17.972Z,1.37
2018-01-15T05:05:17.975Z,1.44
2018-01-15T05:06:17.986Z,1.55
2018-01-15T05:07:18.003Z,1.31
2018-01-15T05:08:18.016Z,1.38
2018-01-15T05:09:18.019Z,1.41
2018-01-15T05:10:18.031Z,1.56
2018-01-15T05:11:18.044Z,1.53
2018-01-15T05:12:18.055Z,1.55
2018-01-15T05:13:18.064Z,1.34
2018-01-15T05:14:18.076Z,1.42
2018-01-15T05:15:18.083Z,1.48
2018-01-15T05:16:18.097Z,1.53
2018-01-15T05:17:18.106Z,1.32
2018-01-15T05:18:18.126Z,1.37
2018-01-15T05:19:18.133Z,1.53
2018-01-15T05:20:18.140Z,1.44
2018-01-15T05:21:18.150Z,1.48
2018-01-15T05:22:18.158Z,1.37
2018-01-15T05:23:18.171Z,1.28
2018-01-15T05:24:18.183Z,1.26
2018-01-15T05:25:18.194Z,1.41
2018-01-15T05:26:18.203Z,1.28
2018-01-15T05:27:18.216Z,1.19
2018-01-15T05:28:18.223Z,1.32
2018-01-15T05:29:18.238Z,1.44
2018-01-15T05:30:18.264Z,1.49
2018-01-15T05:31:18.259Z,1.49
2018-01-15T05:32:18.266Z,1.63
2018-01-15T05:33:18.276Z,1.71
2018-01-15T05:34:18.288Z,1.76
2018-01-15T05:35:18.305Z,1.80
2018-01-15T05:36:18.314Z,1.49
2018-01-15T05:37:18.320Z,1.63
2018-01-15T05:38:18.333Z,1.67
2018-01-15T05:39:18.342Z,1.63
2018-01-15T05:40:18.359Z,1.67
2018-01-15T05:41:18.372Z,1.74
2018-01-15T05:42:18.378Z,1.81
2018-01-15T05:43:18.419Z,1.91
2018-01-15T05:44:18.398Z,1.89
2018-01-15T05:45:18.408Z,2.02
2018-01-15T05:46:18.422Z,1.99
2018-01-15T05:47:18.429Z,1.95
2018-01-15T05:48:18.443Z,1.81
2018-01-15T05:49:18.451Z,1.78
2018-01-15T05:50:18.465Z,1.88
2018-01-15T05:51:18.478Z,1.87
2018-01-15T05:52:18.485Z,2.04
2018-01-15T05:53:18.496Z,2.11
2018-01-15T05:54:18.507Z,2.13
2018-01-15T05:55:18.519Z,2.18
2018-01-15T05:56:18.535Z,2.15
2018-01-15T05:57:18.539Z,2.20
2018-01-15T05:58:18.552Z,2.31
2018-01-15T05:59:18.562Z,2.33
2018-01-15T06:00:18.576Z,2.26
2018-01-15T06:01:18.585Z,2.08
2018-01-15T06:02:18.594Z,2.20
2018-01-15T06:03:18.607Z,2.24
2018-01-15T06:04:18.619Z,2.31
2018-01-15T06:05:18.632Z,2.53
2018-01-15T06:06:18.643Z,2.53
2018-01-15T06:07:18.651Z,2.33
2018-01-15T06:08:18.670Z,2.50
2018-01-15T06:09:18.680Z,2.51
2018-01-15T06:10:18.689Z,2.64
2018-01-15T06:11:18.713Z,2.50
2018-01-15T06:12:18.708Z,2.54
2018-01-15T06:13:18.721Z,2.49
2018-01-15T06:14:18.733Z,2.53
2018-01-15T06:15:18.747Z,2.61
2018-01-15T06:16:18.755Z,2.39
2018-01-15T06:17:18.768Z,2.29
2018-01-15T06:18:18.785Z,2.42
2018-01-15T06:19:18.789Z,2.50
2018-01-15T06:20:18.802Z,2.51
2018-01-15T06:21:18.814Z,2.56
2018-01-15T06:22:18.823Z,2.72
2018-01-15T06:23:18.838Z,2.82
2018-01-15T06:24:18.858Z,2.71
2018-01-15T06:25:18.872Z,2.69
2018-01-15T06:26:18.872Z,2.86
2018-01-15T06:27:18.889Z,2.79
2018-01-15T06:28:18.895Z,2.49
2018-01-15T06:29:18.911Z,2.56
2018-01-15T06:30:18.917Z,2.39
2018-01-15T06:31:18.933Z,2.38
2018-01-15T06:32:18.942Z,2.47
2018-01-15T06:33:18.954Z,2.51
2018-01-15T06:34:18.964Z,2.26
2018-01-15T06:35:18.977Z,2.25
2018-01-15T06:36:18.989Z,2.36
2018-01-15T06:37:18.999Z,2.49
2018-01-15T06:38:19.010Z,2.65
2018-01-15T06:39:19.023Z,2.64
2018-01-15T06:40:19.032Z,2.80
2018-01-15T06:41:19.046Z,2.65
2018-01-15T06:42:19.058Z,2.64
2018-01-15T06:43:19.069Z,2.53
2018-01-15T06:44:19.083Z,2.65
2018-01-15T06:45:19.096Z,2.49
2018-01-15T06:46:19.101Z,2.54
2018-01-15T06:47:19.121Z,2.47
2018-01-15T06:48:19.129Z,2.67
2018-01-15T06:49:19.141Z,2.74
2018-01-15T06:50:19.151Z,2.86
2018-01-15T06:51:19.161Z,2.74
2018-01-15T06:52:19.174Z,2.67
2018-01-15T06:53:19.187Z,2.83
2018-01-15T06:54:19.200Z,2.90
2018-01-15T06:55:19.213Z,2.89
2018-01-15T06:56:19.222Z,3.03
2018-01-15T06:57:19.232Z,3.10
2018-01-15T06:58:19.246Z,3.04
2018-01-15T06:59:19.257Z,2.68
2018-01-15T07:00:19.271Z,2.80
2018-01-15T07:01:19.277Z,2.86
2018-01-15T07:02:19.288Z,2.92
2018-01-15T07:03:19.302Z,3.03
2018-01-15T07:04:19.318Z,2.87
2018-01-15T07:05:19.323Z,2.86
2018-01-15T07:06:19.339Z,2.93
2018-01-15T07:07:19.350Z,2.86
2018-01-15T07:08:19.359Z,2.83
2018-01-15T07:09:19.374Z,2.90
2018-01-15T07:10:19.394Z,2.87
2018-01-15T07:11:19.397Z,2.79
2018-01-15T07:12:19.413Z,2.90
2018-01-15T07:13:19.424Z,2.89
2018-01-15T07:14:19.434Z,2.92
2018-01-15T07:15:19.447Z,2.98
2018-01-15T07:16:19.458Z,3.05
2018-01-15T07:17:19.466Z,3.07
2018-01-15T07:18:19.481Z,3.25
2018-01-15T07:19:19.496Z,3.11
2018-01-15T07:20:19.508Z,3.00
2018-01-15T07:21:19.521Z,3.07
2018-01-15T07:22:19.527Z,3.08
2018-01-15T07:23:19.542Z,2.90
2018-01-15T07:24:19.554Z,2.97
2018-01-15T07:25:19.562Z,3.00
2018-01-15T07:26:19.572Z,2.86
2018-01-15T07:27:19.588Z,3.04
2018-01-15T07:28:19.598Z,3.25
2018-01-15T07:29:19.609Z,3.23
2018-01-15T07:30:19.631Z,3.22
2018-01-15T07:31:19.643Z,3.26
2018-01-15T07:32:19.649Z,3.13
2018-01-15T07:33:19.658Z,3.13
2018-01-15T07:34:19.673Z,3.22
2018-01-15T07:35:19.686Z,3.25
2018-01-15T07:36:19.692Z,3.22
2018-01-15T07:37:19.705Z,3.22
2018-01-15T07:38:19.717Z,3.01
2018-01-15T07:39:19.735Z,3.19
2018-01-15T07:40:19.743Z,3.25
2018-01-15T07:41:19.756Z,3.25
2018-01-15T07:42:19.764Z,3.25
2018-01-15T07:43:19.786Z,3.34
2018-01-15T07:44:19.789Z,3.28
2018-01-15T07:45:19.804Z,3.31
2018-01-15T07:46:19.814Z,3.36
2018-01-15T07:47:19.822Z,3.44
2018-01-15T07:48:19.837Z,3.37
2018-01-15T07:49:19.863Z,3.45
2018-01-15T07:50:19.878Z,3.19
2018-01-15T07:51:19.880Z,3.23
2018-01-15T07:52:19.886Z,3.11
2018-01-15T07:53:19.894Z,3.07
2018-01-15T07:54:19.908Z,3.18
2018-01-15T07:55:19.920Z,3.10
2018-01-15T07:56:19.937Z,3.16
2018-01-15T07:57:19.945Z,3.31
2018-01-15T07:58:19.957Z,3.34
2018-01-15T07:59:20.022Z,3.40
2018-01-15T08:00:19.986Z,3.34
2018-01-15T08:01:19.995Z,3.59
2018-01-15T08:02:20.006Z,3.55
2018-01-15T08:03:20.023Z,3.56
2018-01-15T08:04:20.033Z,3.53
2018-01-15T08:05:20.041Z,3.69
2018-01-15T08:06:20.057Z,3.65
2018-01-15T08:07:20.064Z,3.51
2018-01-15T08:08:20.076Z,3.66
2018-01-15T08:09:20.090Z,3.44
2018-01-15T08:10:20.104Z,3.47
2018-01-15T08:11:20.113Z,3.53
2018-01-15T08:12:20.138Z,3.62
2018-01-15T08:13:20.135Z,3.66
2018-01-15T08:14:20.150Z,3.60
2018-01-15T08:15:20.165Z,3.62
2018-01-15T08:16:20.180Z,3.91
2018-01-15T08:17:20.188Z,4.08
2018-01-15T08:18:20.198Z,4.28
2018-01-15T08:19:20.224Z,4.22
2018-01-15T08:20:20.226Z,4.44
2018-01-15T08:21:20.236Z,4.90
2018-01-15T08:22:20.252Z,5.23
2018-01-15T08:23:20.267Z,5.26
2018-01-15T08:24:20.279Z,5.48
2018-01-15T08:25:20.307Z,5.79
2018-01-15T08:26:20.306Z,5.91
2018-01-15T08:27:20.314Z,5.66
2018-01-15T08:28:20.331Z,4.92
2018-01-15T08:29:20.345Z,4.63
2018-01-15T08:30:20.362Z,5.00
2018-01-15T08:31:20.376Z,5.23
2018-01-15T08:32:20.399Z,5.57
2018-01-15T08:33:20.399Z,5.68
2018-01-15T08:34:20.437Z,5.50
2018-01-15T08:35:20.426Z,5.26
2018-01-15T08:36:20.442Z,5.41
2018-01-15T08:37:20.456Z,5.35
2018-01-15T08:38:20.464Z,5.48
2018-01-15T08:39:20.481Z,5.48
2018-01-15T08:40:20.496Z,5.47
2018-01-15T08:41:20.510Z,5.29
2018-01-15T08:42:20.521Z,5.23
2018-01-15T08:43:20.535Z,5.17
2018-01-15T08:44:20.554Z,4.84
2018-01-15T08:45:20.560Z,4.82
2018-01-15T08:46:20.581Z,5.08
2018-01-15T08:47:20.593Z,5.23
2018-01-15T08:48:20.601Z,5.21
2018-01-15T08:49:20.615Z,5.32
2018-01-15T08:50:20.631Z,5.38
2018-01-15T08:51:20.646Z,5.54
2018-01-15T08:52:20.656Z,5.50
2018-01-15T08:53:20.670Z,5.48
2018-01-15T08:54:20.686Z,5.59
2018-01-15T08:55:20.701Z,5.32
2018-01-15T08:56:20.711Z,5.02
2018-01-15T08:57:20.730Z,5.12
2018-01-15T08:58:20.744Z,5.30
2018-01-15T08:59:20.754Z,5.28
2018-01-15T09:00:20.768Z,4.97
2018-01-15T09:01:20.782Z,5.05
2018-01-15T09:02:20.800Z,5.15
2018-01-15T09:03:20.807Z,4.90
2018-01-15T09:04:20.822Z,4.86
2018-01-15T09:05:20.839Z,4.53
2018-01-15T09:06:20.852Z,4.45
2018-01-15T09:07:20.863Z,4.52
2018-01-15T09:08:20.877Z,4.45
2018-01-15T09:09:20.891Z,4.60
2018-01-15T09:10:20.901Z,4.75
2018-01-15T09:11:20.916Z,4.73
2018-01-15T09:12:20.931Z,4.74
2018-01-15T09:13:20.945Z,4.92
2018-01-15T09:14:20.956Z,4.87
2018-01-15T09:15:20.973Z,4.84
2018-01-15T09:16:20.989Z,5.02
2018-01-15T09:17:20.996Z,4.87
2018-01-15T09:18:21.030Z,4.56
2018-01-15T09:19:21.031Z,4.42
2018-01-15T09:20:21.035Z,4.44
2018-01-15T09:21:21.067Z,4.62
2018-01-15T09:22:21.069Z,4.86
2018-01-15T09:23:21.086Z,4.93
2018-01-15T09:24:21.098Z,4.96
2018-01-15T09:25:21.106Z,4.94
2018-01-15T09:26:21.117Z,4.75
2018-01-15T09:27:21.133Z,5.07
2018-01-15T09:28:21.147Z,5.02
2018-01-15T09:29:21.156Z,4.97
2018-01-15T09:30:21.171Z,5.10
2018-01-15T09:31:21.199Z,5.11
2018-01-15T09:32:21.196Z,5.29
2018-01-15T09:33:21.211Z,4.86
2018-01-15T09:34:21.278Z,4.82
2018-01-15T09:35:21.238Z,5.02
2018-01-15T09:36:21.253Z,4.80
2018-01-15T09:37:21.265Z,4.82
2018-01-15T09:38:21.278Z,5.10
2018-01-15T09:39:21.294Z,5.29
2018-01-15T09:40:21.311Z,5.53
2018-01-15T09:41:21.318Z,5.62
2018-01-15T09:42:21.333Z,5.62
2018-01-15T09:43:21.346Z,5.30
2018-01-15T09:44:21.361Z,5.56
2018-01-15T09:45:21.372Z,5.48
2018-01-15T09:46:21.389Z,5.47
2018-01-15T09:47:21.400Z,5.71
2018-01-15T09:48:21.413Z,5.62
2018-01-15T09:49:21.426Z,5.79
2018-01-15T09:50:21.449Z,5.69
2018-01-15T09:51:21.457Z,5.83
2018-01-15T09:52:21.470Z,6.16
2018-01-15T09:53:21.484Z,6.28
2018-01-15T09:54:21.498Z,6.38
2018-01-15T09:55:21.518Z,6.46
2018-01-15T09:56:21.531Z,6.48
2018-01-15T09:57:21.543Z,5.87
2018-01-15T09:58:21.552Z,5.86
2018-01-15T09:59:21.572Z,5.86
2018-01-15T10:00:21.582Z,6.02
2018-01-15T10:01:21.602Z,5.76
2018-01-15T10:02:21.607Z,5.57
2018-01-15T10:03:21.634Z,5.73
2018-01-15T10:04:21.646Z,5.94
2018-01-15T10:05:21.651Z,6.14
2018-01-15T10:06:21.668Z,6.12
2018-01-15T10:07:21.683Z,6.46
2018-01-15T10:08:21.697Z,6.69
2018-01-15T10:09:21.705Z,6.85
2018-01-15T10:10:21.722Z,6.79
2018-01-15T10:11:21.738Z,6.84
2018-01-15T10:12:21.749Z,6.70
2018-01-15T10:13:21.764Z,6.67
2018-01-15T10:14:21.785Z,6.05
2018-01-15T10:15:21.800Z,5.90
2018-01-15T10:16:21.811Z,6.14
2018-01-15T10:17:21.824Z,6.22
2018-01-15T10:18:21.835Z,6.26
2018-01-15T10:19:21.856Z,6.33
2018-01-15T10:20:21.864Z,6.38
2018-01-15T10:21:21.879Z,6.41
2018-01-15T10:22:21.896Z,6.42
2018-01-15T10:23:21.908Z,6.59
2018-01-15T10:24:21.927Z,6.27
2018-01-15T10:25:21.933Z,6.08
2018-01-15T10:26:21.948Z,6.16
2018-01-15T10:27:21.968Z,6.45
2018-01-15T10:28:21.982Z,6.33
2018-01-15T10:29:21.993Z,6.26
2018-01-15T10:30:22.080Z,6.41
2018-01-15T10:31:22.035Z,6.42
2018-01-15T10:32:22.047Z,6.12
2018-01-15T10:33:22.049Z,6.44
2018-01-15T10:34:22.069Z,6.45
2018-01-15T10:35:22.091Z,6.46
2018-01-15T10:36:22.093Z,6.56
2018-01-15T10:37:22.110Z,6.52
2018-01-15T10:38:22.121Z,6.45
2018-01-15T10:39:22.134Z,6.26
2018-01-15T10:40:22.153Z,5.99
2018-01-15T10:41:22.168Z,5.84
2018-01-15T10:42:22.177Z,5.90
2018-01-15T10:43:22.204Z,5.75
2018-01-15T10:44:22.209Z,6.01
2018-01-15T10:45:22.220Z,6.05
2018-01-15T10:46:22.236Z,6.16
2018-01-15T10:47:22.249Z,6.09
2018-01-15T10:48:22.318Z,6.08
2018-01-15T10:49:22.274Z,6.07
2018-01-15T10:50:22.290Z,6.11
2018-01-15T10:51:22.309Z,5.86
2018-01-15T10:52:22.318Z,5.98
2018-01-15T10:53:22.332Z,6.02
2018-01-15T10:54:22.344Z,5.98
2018-01-15T10:55:22.371Z,5.98
2018-01-15T10:56:22.376Z,6.01
2018-01-15T10:57:22.394Z,6.09
2018-01-15T10:58:22.407Z,5.97
2018-01-15T10:59:22.418Z,6.04
2018-01-15T11:00:22.431Z,6.14
2018-01-15T11:01:22.444Z,5.97
2018-01-15T11:02:22.459Z,5.98
2018-01-15T11:03:22.472Z,5.93
2018-01-15T11:04:22.488Z,6.09
2018-01-15T11:05:22.500Z,6.20
2018-01-15T11:06:22.513Z,6.39
2018-01-15T11:07:22.528Z,6.42
2018-01-15T11:08:22.541Z,5.98
2018-01-15T11:09:22.557Z,5.80
2018-01-15T11:10:22.575Z,5.75
2018-01-15T11:11:22.583Z,5.93
2018-01-15T11:12:22.597Z,6.27
2018-01-15T11:13:22.614Z,6.45
2018-01-15T11:14:22.624Z,6.17
2018-01-15T11:15:22.644Z,5.91
2018-01-15T11:16:22.670Z,5.91
2018-01-15T11:17:22.683Z,6.05
2018-01-15T11:18:22.720Z,6.28
2018-01-15T11:19:22.695Z,6.44
2018-01-15T11:20:22.709Z,6.49
2018-01-15T11:21:22.722Z,6.44
2018-01-15T11:22:22.733Z,6.26
2018-01-15T11:23:22.751Z,6.42
2018-01-15T11:24:22.767Z,6.64
2018-01-15T11:25:22.785Z,6.41
2018-01-15T11:26:22.791Z,6.44
2018-01-15T11:27:22.823Z,6.48
2018-01-15T11:28:22.820Z,6.41
2018-01-15T11:29:22.835Z,6.59
2018-01-15T11:30:22.850Z,6.51
2018-01-15T11:31:22.865Z,6.46
2018-01-15T11:32:22.882Z,6.14
2018-01-15T11:33:22.900Z,6.30
2018-01-15T11:34:22.903Z,6.49
2018-01-15T11:35:22.917Z,6.67
2018-01-15T11:36:22.937Z,6.79
2018-01-15T11:37:22.960Z,6.41
2018-01-15T11:38:22.962Z,6.60
2018-01-15T11:39:22.981Z,6.74
2018-01-15T11:40:22.992Z,6.70
2018-01-15T11:41:23.003Z,6.74
2018-01-15T11:42:23.018Z,6.49
2018-01-15T11:43:23.037Z,6.67
2018-01-15T11:44:23.047Z,6.38
2018-01-15T11:45:23.064Z,6.54
2018-01-15T11:46:23.075Z,6.26
2018-01-15T11:47:23.090Z,6.16
2018-01-15T11:48:23.100Z,6.49
2018-01-15T11:49:23.125Z,6.31
2018-01-15T11:50:23.134Z,6.14
2018-01-15T11:51:23.146Z,6.14
2018-01-15T11:52:23.161Z,6.11
2018-01-15T11:53:23.175Z,6.05
2018-01-15T11:54:23.186Z,6.12
2018-01-15T11:55:23.215Z,5.84
2018-01-15T11:56:23.227Z,5.86
2018-01-15T11:57:23.233Z,5.97
2018-01-15T11:58:23.241Z,6.31
2018-01-15T11:59:23.260Z,5.84
2018-01-15T12:00:23.286Z,6.07
2018-01-15T12:01:23.288Z,6.04
2018-01-15T12:02:23.300Z,6.01
2018-01-15T12:03:23.317Z,5.76
2018-01-15T12:04:23.327Z,5.79
2018-01-15T12:05:23.340Z,5.97
2018-01-15T12:06:23.355Z,5.97
2018-01-15T12:07:23.371Z,6.09
2018-01-15T12:08:23.382Z,6.27
2018-01-15T12:09:23.397Z,6.14
2018-01-15T12:10:23.410Z,6.11
2018-01-15T12:11:23.428Z,6.26
2018-01-15T12:12:23.446Z,6.20
2018-01-15T12:13:23.451Z,5.97
2018-01-15T12:14:23.465Z,6.02
2018-01-15T12:15:23.477Z,5.98
2018-01-15T12:16:23.499Z,5.75
2018-01-15T12:17:23.513Z,5.83
2018-01-15T12:18:23.519Z,5.83
2018-01-15T12:19:23.534Z,5.83
2018-01-15T12:20:23.547Z,5.90
2018-01-15T12:21:23.559Z,5.99
2018-01-15T12:22:23.575Z,5.82
2018-01-15T12:23:23.593Z,5.76
2018-01-15T12:24:23.600Z,5.84
2018-01-15T12:25:23.614Z,5.89
2018-01-15T12:26:23.628Z,6.02
2018-01-15T12:27:23.643Z,6.12
2018-01-15T12:28:23.656Z,6.16
2018-01-15T12:29:23.669Z,6.27
2018-01-15T12:30:23.684Z,6.27
2018-01-15T12:31:23.700Z,6.30
2018-01-15T12:32:23.714Z,6.12
2018-01-15T12:33:23.723Z,6.05
2018-01-15T12:34:23.736Z,5.97
2018-01-15T12:35:23.749Z,5.76
2018-01-15T12:36:23.764Z,5.75
2018-01-15T12:37:23.784Z,5.57
2018-01-15T12:38:23.791Z,5.80
2018-01-15T12:39:23.807Z,5.82
2018-01-15T12:40:23.820Z,5.66
2018-01-15T12:41:23.832Z,5.65
2018-01-15T12:42:23.853Z,5.51
2018-01-15T12:43:23.863Z,5.65
2018-01-15T12:44:23.880Z,5.57
2018-01-15T12:45:23.887Z,5.59
2018-01-15T12:46:23.905Z,5.66
2018-01-15T12:47:23.915Z,5.68
2018-01-15T12:48:23.925Z,5.75
2018-01-15T12:49:23.937Z,5.73
2018-01-15T12:50:23.956Z,5.64
2018-01-15T12:51:23.967Z,5.72
2018-01-15T12:52:23.981Z,5.83
2018-01-15T12:53:23.994Z,5.99
2018-01-15T12:54:24.009Z,5.82
2018-01-15T12:55:24.019Z,5.89
2018-01-15T12:56:24.037Z,5.73
2018-01-15T12:57:24.048Z,5.91
2018-01-15T12:58:24.065Z,5.97
2018-01-15T12:59:24.075Z,5.99
2018-01-15T13:00:24.087Z,6.02
2018-01-15T13:01:24.105Z,6.04
2018-01-15T13:02:24.115Z,5.86
2018-01-15T13:03:24.131Z,5.87
2018-01-15T13:04:24.146Z,5.87
2018-01-15T13:05:24.156Z,6.14
2018-01-15T13:06:24.174Z,6.11
2018-01-15T13:07:24.186Z,6.07
2018-01-15T13:08:24.196Z,6.04
2018-01-15T13:09:24.213Z,6.36
2018-01-15T13:10:24.224Z,6.26
2018-01-15T13:11:24.239Z,6.09
2018-01-15T13:12:24.257Z,5.98
2018-01-15T13:13:24.265Z,6.09
2018-01-15T13:14:24.277Z,6.22
2018-01-15T13:15:24.292Z,6.30
2018-01-15T13:16:24.306Z,6.38
2018-01-15T13:17:24.319Z,6.44
2018-01-15T13:18:24.383Z,6.52